PWSweather.com
Personal Weather Stations
Station Observations
COONRAPIDS
Minneapolis, MN 55433

Minneapolis, MN 55433

Lat: 45.187721, Lon: -93.36828

Elevation: 898

Station Type: Davis Vantage Pro 2

Latest ConditionsUpdated 6:30:01 PM CST Sunday, Dec 21, 2014
Currently Today's Max Today's Min Today's Average
Temperature 36.2°F2.3°C 36.2°F2.3°C 31.7°F-0.2°C 33.6°F0.9°C
Dew Point 33.8°F1.0°C 33.8°F1.0°C 26.9°F-2.8°C 30.5°F-0.8°C
Winds Calm Calm 2.6 mph S4.2 kmh S - 0.3 mph 0.5 kmh
Wind Gusts -- 5.0 mph8.0 kmh - -
Humidity 91% 91% 82% 88%
Pressure 29.73 in1006.8 mb 30.06 in1017.9 mb 29.73 in1006.8 mb -
Precipitation - 0.10 in2.5 mm - -
Hour Temp Dew Point Humidity Winds Wind Gusts Pressure Precip Precip Rate Daily Precip Total
06:30 PM 36.2°F2.3°C 33.8°F1.0°C 91% Calm Calm -- 29.73 in1006.8 mb 0.00 in0.0 mm 0.00 in/hr0.0 mm/hr 0.10 in2.5 mm
06:20 PM 36.1°F2.3°C 33.7°F0.9°C 91% 0.2 mph SSW0.3 kmh SSW -- 29.73 in1006.8 mb 0.00 in0.0 mm 0.00 in/hr0.0 mm/hr 0.10 in2.5 mm
06:10 PM 36.1°F2.3°C 33.7°F0.9°C 91% 0.7 mph S1.1 kmh S 2.0 mph3.2 kmh 29.73 in1006.8 mb 0.00 in0.0 mm 0.00 in/hr0.0 mm/hr 0.10 in2.5 mm
06:00 PM 36.0°F2.2°C 33.7°F0.9°C 91% Calm Calm -- 29.73 in1006.8 mb 0.00 in0.0 mm 0.00 in/hr0.0 mm/hr 0.10 in2.5 mm
05:50 PM 36.0°F2.2°C 33.6°F0.9°C 91% 0.5 mph SSE0.8 kmh SSE 3.0 mph4.8 kmh 29.73 in1006.8 mb 0.00 in0.0 mm 0.00 in/hr0.0 mm/hr 0.10 in2.5 mm
05:40 PM 36.0°F2.2°C 33.6°F0.9°C 91% Calm Calm -- 29.73 in1006.8 mb 0.00 in0.0 mm 0.00 in/hr0.0 mm/hr 0.10 in2.5 mm
05:30 PM 35.9°F2.2°C 33.5°F0.8°C 91% 0.2 mph SSE0.3 kmh SSE 3.0 mph4.8 kmh 29.73 in1006.8 mb 0.01 in0.3 mm 0.06 in/hr1.5 mm/hr 0.10 in2.5 mm
05:20 PM 35.7°F2.1°C 33.3°F0.7°C 91% 0.1 mph SSE0.2 kmh SSE 1.0 mph1.6 kmh 29.73 in1006.8 mb 0.00 in0.0 mm 0.00 in/hr0.0 mm/hr 0.09 in2.3 mm
05:10 PM 35.6°F2.0°C 33.2°F0.7°C 91% Calm Calm -- 29.73 in1006.8 mb 0.00 in0.0 mm 0.00 in/hr0.0 mm/hr 0.09 in2.3 mm
05:00 PM 35.4°F1.9°C 33.0°F0.6°C 91% Calm Calm -- 29.73 in1006.8 mb 0.00 in0.0 mm 0.00 in/hr0.0 mm/hr 0.09 in2.3 mm
04:50 PM 35.3°F1.8°C 32.9°F0.5°C 91% 0.1 mph SSE0.2 kmh SSE 2.0 mph3.2 kmh 29.73 in1006.8 mb 0.00 in0.0 mm 0.00 in/hr0.0 mm/hr 0.09 in2.3 mm
04:40 PM 35.2°F1.8°C 32.6°F0.3°C 90% 1.8 mph SSE2.9 kmh SSE 4.0 mph6.4 kmh 29.73 in1006.8 mb 0.00 in0.0 mm 0.00 in/hr0.0 mm/hr 0.09 in2.3 mm
04:30 PM 35.1°F1.7°C 32.5°F0.3°C 90% 0.8 mph SE1.3 kmh SE 2.0 mph3.2 kmh 29.73 in1006.8 mb 0.00 in0.0 mm 0.00 in/hr0.0 mm/hr 0.09 in2.3 mm
04:20 PM 35.1°F1.7°C 32.5°F0.3°C 90% 0.2 mph SSE0.3 kmh SSE 2.0 mph3.2 kmh 29.73 in1006.8 mb 0.00 in0.0 mm 0.00 in/hr0.0 mm/hr 0.09 in2.3 mm
04:10 PM 35.2°F1.8°C 32.6°F0.3°C 90% Calm Calm -- 29.73 in1006.8 mb 0.01 in0.3 mm 0.06 in/hr1.5 mm/hr 0.09 in2.3 mm
04:00 PM 35.3°F1.8°C 32.7°F0.4°C 90% Calm Calm -- 29.73 in1006.8 mb 0.00 in0.0 mm 0.00 in/hr0.0 mm/hr 0.08 in2.0 mm
03:50 PM 35.4°F1.9°C 32.8°F0.4°C 90% 0.8 mph SSE1.3 kmh SSE 5.0 mph8.0 kmh 29.73 in1006.8 mb 0.01 in0.3 mm 0.06 in/hr1.5 mm/hr 0.08 in2.0 mm
03:40 PM 35.6°F2.0°C 32.9°F0.5°C 90% 0.2 mph S0.3 kmh S 4.0 mph6.4 kmh 29.73 in1006.8 mb 0.00 in0.0 mm 0.00 in/hr0.0 mm/hr 0.07 in1.8 mm
03:30 PM 35.5°F1.9°C 32.9°F0.5°C 90% Calm Calm -- 29.73 in1006.8 mb 0.00 in0.0 mm 0.00 in/hr0.0 mm/hr 0.07 in1.8 mm
03:20 PM 35.5°F1.9°C 32.9°F0.5°C 90% Calm Calm 1.0 mph1.6 kmh 29.73 in1006.8 mb 0.04 in1.0 mm 0.24 in/hr6.1 mm/hr 0.07 in1.8 mm
03:10 PM 35.4°F1.9°C 32.8°F0.4°C 90% 0.9 mph SSE1.4 kmh SSE 3.0 mph4.8 kmh 29.73 in1006.8 mb 0.00 in0.0 mm 0.00 in/hr0.0 mm/hr 0.03 in0.8 mm
03:00 PM 35.4°F1.9°C 32.8°F0.4°C 90% Calm Calm -- 29.74 in1007.1 mb 0.00 in0.0 mm 0.00 in/hr0.0 mm/hr 0.03 in0.8 mm
02:50 PM 35.5°F1.9°C 33.1°F0.6°C 91% 0.1 mph S0.2 kmh S 1.0 mph1.6 kmh 29.74 in1007.1 mb 0.00 in0.0 mm 0.00 in/hr0.0 mm/hr 0.03 in0.8 mm
02:40 PM 35.4°F1.9°C 33.0°F0.6°C 91% Calm Calm -- 29.74 in1007.1 mb 0.00 in0.0 mm 0.00 in/hr0.0 mm/hr 0.03 in0.8 mm
02:30 PM 35.3°F1.8°C 32.9°F0.5°C 91% 0.3 mph SE0.5 kmh SE 2.0 mph3.2 kmh 29.74 in1007.1 mb 0.01 in0.3 mm 0.06 in/hr1.5 mm/hr 0.03 in0.8 mm
02:20 PM 35.1°F1.7°C 32.7°F0.4°C 91% Calm Calm -- 29.74 in1007.1 mb 0.00 in0.0 mm 0.00 in/hr0.0 mm/hr 0.02 in0.5 mm
02:10 PM 34.9°F1.6°C 32.5°F0.3°C 91% Calm Calm -- 29.75 in1007.5 mb 0.00 in0.0 mm 0.00 in/hr0.0 mm/hr 0.02 in0.5 mm
02:00 PM 34.8°F1.6°C 32.4°F0.2°C 91% 0.9 mph S1.4 kmh S 2.0 mph3.2 kmh 29.75 in1007.5 mb 0.00 in0.0 mm 0.00 in/hr0.0 mm/hr 0.02 in0.5 mm
01:50 PM 34.7°F1.5°C 32.3°F0.2°C 91% 0.9 mph S1.4 kmh S 1.0 mph1.6 kmh 29.75 in1007.5 mb 0.02 in0.5 mm 0.12 in/hr3.0 mm/hr 0.02 in0.5 mm
01:40 PM 34.7°F1.5°C 32.3°F0.2°C 91% Calm Calm -- 29.76 in1007.8 mb 0.00 in0.0 mm 0.00 in/hr0.0 mm/hr 0.00 in0.0 mm
01:30 PM 34.6°F1.4°C 32.0°F0.0°C 90% 0.4 mph S0.6 kmh S 2.0 mph3.2 kmh 29.76 in1007.8 mb 0.00 in0.0 mm 0.00 in/hr0.0 mm/hr 0.00 in0.0 mm
01:20 PM 34.5°F1.4°C 31.9°F-0.1°C 90% 2.3 mph SE3.7 kmh SE 4.0 mph6.4 kmh 29.76 in1007.8 mb 0.00 in0.0 mm 0.00 in/hr0.0 mm/hr 0.00 in0.0 mm
01:10 PM 34.4°F1.3°C 31.8°F-0.1°C 90% 1.7 mph SE2.7 kmh SE 2.0 mph3.2 kmh 29.76 in1007.8 mb 0.00 in0.0 mm 0.00 in/hr0.0 mm/hr 0.00 in0.0 mm
01:00 PM 34.3°F1.3°C 31.7°F-0.2°C 90% 0.8 mph SE1.3 kmh SE 1.0 mph1.6 kmh 29.77 in1008.1 mb 0.00 in0.0 mm 0.00 in/hr0.0 mm/hr 0.00 in0.0 mm
12:50 PM 34.3°F1.3°C 31.7°F-0.2°C 90% 1.3 mph SE2.1 kmh SE 3.0 mph4.8 kmh 29.77 in1008.1 mb 0.00 in0.0 mm 0.00 in/hr0.0 mm/hr 0.00 in0.0 mm
12:40 PM 34.2°F1.2°C 31.6°F-0.2°C 90% Calm Calm -- 29.78 in1008.5 mb 0.00 in0.0 mm 0.00 in/hr0.0 mm/hr 0.00 in0.0 mm
12:30 PM 34.2°F1.2°C 31.6°F-0.2°C 90% 0.3 mph S0.5 kmh S 2.0 mph3.2 kmh 29.79 in1008.8 mb 0.00 in0.0 mm 0.00 in/hr0.0 mm/hr 0.00 in0.0 mm
12:20 PM 34.3°F1.3°C 31.7°F-0.2°C 90% 0.6 mph SSE1.0 kmh SSE 2.0 mph3.2 kmh 29.80 in1009.1 mb 0.00 in0.0 mm 0.00 in/hr0.0 mm/hr 0.00 in0.0 mm
12:10 PM 34.4°F1.3°C 31.8°F-0.1°C 90% Calm Calm -- 29.80 in1009.1 mb 0.00 in0.0 mm 0.00 in/hr0.0 mm/hr 0.00 in0.0 mm
12:00 PM 34.5°F1.4°C 31.9°F-0.1°C 90% 0.4 mph SSE0.6 kmh SSE 1.0 mph1.6 kmh 29.81 in1009.5 mb 0.00 in0.0 mm 0.00 in/hr0.0 mm/hr 0.00 in0.0 mm
11:50 AM 34.5°F1.4°C 31.9°F-0.1°C 90% Calm Calm -- 29.82 in1009.8 mb 0.00 in0.0 mm 0.00 in/hr0.0 mm/hr 0.00 in0.0 mm
11:40 AM 34.4°F1.3°C 32.0°F0.0°C 91% 1.6 mph S2.6 kmh S 4.0 mph6.4 kmh 29.82 in1009.8 mb 0.00 in0.0 mm 0.00 in/hr0.0 mm/hr 0.00 in0.0 mm
11:30 AM 34.1°F1.2°C 31.5°F-0.3°C 90% 0.4 mph SSE0.6 kmh SSE 1.0 mph1.6 kmh 29.83 in1010.2 mb 0.00 in0.0 mm 0.00 in/hr0.0 mm/hr 0.00 in0.0 mm
11:20 AM 33.8°F1.0°C 31.2°F-0.4°C 90% Calm Calm -- 29.83 in1010.2 mb 0.00 in0.0 mm 0.00 in/hr0.0 mm/hr 0.00 in0.0 mm
11:10 AM 33.6°F0.9°C 31.0°F-0.6°C 90% Calm Calm -- 29.84 in1010.5 mb 0.00 in0.0 mm 0.00 in/hr0.0 mm/hr 0.00 in0.0 mm
11:00 AM 33.5°F0.8°C 30.9°F-0.6°C 90% Calm Calm -- 29.85 in1010.8 mb 0.00 in0.0 mm 0.00 in/hr0.0 mm/hr 0.00 in0.0 mm
10:50 AM 33.4°F0.8°C 30.8°F-0.7°C 90% 0.1 mph S0.2 kmh S -- 29.85 in1010.8 mb 0.00 in0.0 mm 0.00 in/hr0.0 mm/hr 0.00 in0.0 mm
10:40 AM 33.4°F0.8°C 30.8°F-0.7°C 90% Calm Calm -- 29.86 in1011.2 mb 0.00 in0.0 mm 0.00 in/hr0.0 mm/hr 0.00 in0.0 mm
10:30 AM 33.4°F0.8°C 30.8°F-0.7°C 90% Calm Calm -- 29.86 in1011.2 mb 0.00 in0.0 mm 0.00 in/hr0.0 mm/hr 0.00 in0.0 mm
10:20 AM 33.3°F0.7°C 30.7°F-0.7°C 90% Calm Calm -- 29.86 in1011.2 mb 0.00 in0.0 mm 0.00 in/hr0.0 mm/hr 0.00 in0.0 mm
10:10 AM 33.3°F0.7°C 30.7°F-0.7°C 90% Calm Calm -- 29.87 in1011.5 mb 0.00 in0.0 mm 0.00 in/hr0.0 mm/hr 0.00 in0.0 mm
10:00 AM 33.4°F0.8°C 30.8°F-0.7°C 90% Calm Calm -- 29.87 in1011.5 mb 0.00 in0.0 mm 0.00 in/hr0.0 mm/hr 0.00 in0.0 mm
09:50 AM 33.5°F0.8°C 30.9°F-0.6°C 90% Calm Calm -- 29.87 in1011.5 mb 0.00 in0.0 mm 0.00 in/hr0.0 mm/hr 0.00 in0.0 mm
09:40 AM 33.6°F0.9°C 31.0°F-0.6°C 90% Calm Calm -- 29.87 in1011.5 mb 0.00 in0.0 mm 0.00 in/hr0.0 mm/hr 0.00 in0.0 mm
09:30 AM 33.7°F0.9°C 31.1°F-0.5°C 90% Calm Calm -- 29.87 in1011.5 mb 0.00 in0.0 mm 0.00 in/hr0.0 mm/hr 0.00 in0.0 mm
09:20 AM 33.8°F1.0°C 31.1°F-0.5°C 90% Calm Calm -- 29.88 in1011.9 mb 0.00 in0.0 mm 0.00 in/hr0.0 mm/hr 0.00 in0.0 mm
09:10 AM 33.7°F0.9°C 31.1°F-0.5°C 90% Calm Calm -- 29.88 in1011.9 mb 0.00 in0.0 mm 0.00 in/hr0.0 mm/hr 0.00 in0.0 mm
09:00 AM 33.7°F0.9°C 31.1°F-0.5°C 90% Calm Calm -- 29.88 in1011.9 mb 0.00 in0.0 mm 0.00 in/hr0.0 mm/hr 0.00 in0.0 mm
08:50 AM 33.5°F0.8°C 30.9°F-0.6°C 90% 0.3 mph S0.5 kmh S -- 29.87 in1011.5 mb 0.00 in0.0 mm 0.00 in/hr0.0 mm/hr 0.00 in0.0 mm
08:40 AM 33.4°F0.8°C 30.8°F-0.7°C 90% Calm Calm -- 29.88 in1011.9 mb 0.00 in0.0 mm 0.00 in/hr0.0 mm/hr 0.00 in0.0 mm
08:30 AM 33.3°F0.7°C 30.7°F-0.7°C 90% Calm Calm -- 29.88 in1011.9 mb 0.00 in0.0 mm 0.00 in/hr0.0 mm/hr 0.00 in0.0 mm
08:20 AM 33.2°F0.7°C 30.6°F-0.8°C 90% Calm Calm -- 29.88 in1011.9 mb 0.00 in0.0 mm 0.00 in/hr0.0 mm/hr 0.00 in0.0 mm
08:10 AM 33.1°F0.6°C 30.5°F-0.8°C 90% Calm Calm 3.0 mph4.8 kmh 29.88 in1011.9 mb 0.00 in0.0 mm 0.00 in/hr0.0 mm/hr 0.00 in0.0 mm
08:00 AM 33.1°F0.6°C 30.2°F-1.0°C 89% 0.9 mph SE1.4 kmh SE 4.0 mph6.4 kmh 29.88 in1011.9 mb 0.00 in0.0 mm 0.00 in/hr0.0 mm/hr 0.00 in0.0 mm
07:50 AM 33.1°F0.6°C 30.2°F-1.0°C 89% 1.3 mph SE2.1 kmh SE 4.0 mph6.4 kmh 29.88 in1011.9 mb 0.00 in0.0 mm 0.00 in/hr0.0 mm/hr 0.00 in0.0 mm
07:40 AM 33.0°F0.6°C 30.1°F-1.1°C 89% Calm Calm 3.0 mph4.8 kmh 29.89 in1012.2 mb 0.00 in0.0 mm 0.00 in/hr0.0 mm/hr 0.00 in0.0 mm
07:30 AM 33.1°F0.6°C 30.2°F-1.0°C 89% 0.7 mph S1.1 kmh S 2.0 mph3.2 kmh 29.89 in1012.2 mb 0.00 in0.0 mm 0.00 in/hr0.0 mm/hr 0.00 in0.0 mm
07:20 AM 33.0°F0.6°C 30.1°F-1.1°C 89% Calm Calm 2.0 mph3.2 kmh 29.90 in1012.5 mb 0.00 in0.0 mm 0.00 in/hr0.0 mm/hr 0.00 in0.0 mm
07:10 AM 33.0°F0.6°C 30.1°F-1.1°C 89% 0.4 mph SE0.6 kmh SE 4.0 mph6.4 kmh 29.91 in1012.9 mb 0.00 in0.0 mm 0.00 in/hr0.0 mm/hr 0.00 in0.0 mm
07:00 AM 33.0°F0.6°C 29.8°F-1.2°C 88% 0.1 mph S0.2 kmh S -- 29.91 in1012.9 mb 0.00 in0.0 mm 0.00 in/hr0.0 mm/hr 0.00 in0.0 mm
06:50 AM 33.0°F0.6°C 29.8°F-1.2°C 88% Calm Calm -- 29.91 in1012.9 mb 0.00 in0.0 mm 0.00 in/hr0.0 mm/hr 0.00 in0.0 mm
06:40 AM 33.0°F0.6°C 29.8°F-1.2°C 88% 0.1 mph SE0.2 kmh SE -- 29.91 in1012.9 mb 0.00 in0.0 mm 0.00 in/hr0.0 mm/hr 0.00 in0.0 mm
06:30 AM 33.0°F0.6°C 29.5°F-1.4°C 87% Calm Calm -- 29.91 in1012.9 mb 0.00 in0.0 mm 0.00 in/hr0.0 mm/hr 0.00 in0.0 mm
06:20 AM 32.9°F0.5°C 29.5°F-1.4°C 87% 0.2 mph SE0.3 kmh SE 3.0 mph4.8 kmh 29.91 in1012.9 mb 0.00 in0.0 mm 0.00 in/hr0.0 mm/hr 0.00 in0.0 mm
06:10 AM 32.8°F0.4°C 29.4°F-1.4°C 87% 1.6 mph SE2.6 kmh SE 4.0 mph6.4 kmh 29.91 in1012.9 mb 0.00 in0.0 mm 0.00 in/hr0.0 mm/hr 0.00 in0.0 mm
06:00 AM 32.8°F0.4°C 29.4°F-1.4°C 87% 0.2 mph SE0.3 kmh SE -- 29.91 in1012.9 mb 0.00 in0.0 mm 0.00 in/hr0.0 mm/hr 0.00 in0.0 mm
05:50 AM 32.8°F0.4°C 29.3°F-1.5°C 87% 0.2 mph SSE0.3 kmh SSE -- 29.92 in1013.2 mb 0.00 in0.0 mm 0.00 in/hr0.0 mm/hr 0.00 in0.0 mm
05:40 AM 32.7°F0.4°C 29.3°F-1.5°C 87% 1.7 mph SSE2.7 kmh SSE 5.0 mph8.0 kmh 29.92 in1013.2 mb 0.00 in0.0 mm 0.00 in/hr0.0 mm/hr 0.00 in0.0 mm
05:30 AM 32.6°F0.3°C 29.2°F-1.6°C 87% 0.7 mph SE1.1 kmh SE 5.0 mph8.0 kmh 29.93 in1013.5 mb 0.00 in0.0 mm 0.00 in/hr0.0 mm/hr 0.00 in0.0 mm
05:20 AM 32.5°F0.3°C 29.1°F-1.6°C 87% 0.9 mph SE1.4 kmh SE 3.0 mph4.8 kmh 29.93 in1013.5 mb 0.00 in0.0 mm 0.00 in/hr0.0 mm/hr 0.00 in0.0 mm
05:10 AM 32.5°F0.3°C 29.1°F-1.6°C 87% Calm Calm -- 29.93 in1013.5 mb 0.00 in0.0 mm 0.00 in/hr0.0 mm/hr 0.00 in0.0 mm
05:00 AM 32.5°F0.3°C 29.0°F-1.7°C 87% Calm Calm -- 29.94 in1013.9 mb 0.00 in0.0 mm 0.00 in/hr0.0 mm/hr 0.00 in0.0 mm
04:50 AM 32.4°F0.2°C 29.0°F-1.7°C 87% 1.1 mph S1.8 kmh S 4.0 mph6.4 kmh 29.95 in1014.2 mb 0.00 in0.0 mm 0.00 in/hr0.0 mm/hr 0.00 in0.0 mm
04:40 AM 32.3°F0.2°C 28.9°F-1.7°C 87% 0.9 mph SSE1.4 kmh SSE -- 29.95 in1014.2 mb 0.00 in0.0 mm 0.00 in/hr0.0 mm/hr 0.00 in0.0 mm
04:30 AM 32.1°F0.1°C 28.7°F-1.8°C 87% 1.1 mph S1.8 kmh S 4.0 mph6.4 kmh 29.96 in1014.6 mb 0.00 in0.0 mm 0.00 in/hr0.0 mm/hr 0.00 in0.0 mm
04:20 AM 32.0°F0.0°C 28.6°F-1.9°C 87% Calm Calm -- 29.96 in1014.6 mb 0.00 in0.0 mm 0.00 in/hr0.0 mm/hr 0.00 in0.0 mm
04:10 AM 32.0°F0.0°C 28.6°F-1.9°C 87% 2.6 mph S4.2 kmh S 5.0 mph8.0 kmh 29.97 in1014.9 mb 0.00 in0.0 mm 0.00 in/hr0.0 mm/hr 0.00 in0.0 mm
04:00 AM 31.9°F-0.1°C 28.5°F-1.9°C 87% Calm Calm 2.0 mph3.2 kmh 29.98 in1015.2 mb 0.00 in0.0 mm 0.00 in/hr0.0 mm/hr 0.00 in0.0 mm
03:50 AM 31.9°F-0.1°C 28.5°F-1.9°C 87% Calm Calm 2.0 mph3.2 kmh 29.98 in1015.2 mb 0.00 in0.0 mm 0.00 in/hr0.0 mm/hr 0.00 in0.0 mm
03:40 AM 31.9°F-0.1°C 28.2°F-2.1°C 86% 1.3 mph SE2.1 kmh SE 2.0 mph3.2 kmh 29.98 in1015.2 mb 0.00 in0.0 mm 0.00 in/hr0.0 mm/hr 0.00 in0.0 mm
03:30 AM 31.9°F-0.1°C 28.2°F-2.1°C 86% 0.1 mph SE0.2 kmh SE -- 29.99 in1015.6 mb 0.00 in0.0 mm 0.00 in/hr0.0 mm/hr 0.00 in0.0 mm
03:20 AM 32.0°F0.0°C 28.3°F-2.1°C 86% 1.7 mph SE2.7 kmh SE 4.0 mph6.4 kmh 29.99 in1015.6 mb 0.00 in0.0 mm 0.00 in/hr0.0 mm/hr 0.00 in0.0 mm
03:10 AM 32.0°F0.0°C 28.3°F-2.1°C 86% Calm Calm 4.0 mph6.4 kmh 30.00 in1015.9 mb 0.00 in0.0 mm 0.00 in/hr0.0 mm/hr 0.00 in0.0 mm
03:00 AM 32.0°F0.0°C 28.0°F-2.2°C 85% Calm Calm -- 30.01 in1016.3 mb 0.00 in0.0 mm 0.00 in/hr0.0 mm/hr 0.00 in0.0 mm
02:50 AM 32.0°F0.0°C 28.0°F-2.2°C 85% 0.2 mph SE0.3 kmh SE 2.0 mph3.2 kmh 30.02 in1016.6 mb 0.00 in0.0 mm 0.00 in/hr0.0 mm/hr 0.00 in0.0 mm
02:40 AM 32.0°F0.0°C 27.7°F-2.4°C 84% 0.3 mph SE0.5 kmh SE 3.0 mph4.8 kmh 30.02 in1016.6 mb 0.00 in0.0 mm 0.00 in/hr0.0 mm/hr 0.00 in0.0 mm
02:30 AM 32.0°F0.0°C 27.7°F-2.4°C 84% 0.1 mph S0.2 kmh S 3.0 mph4.8 kmh 30.02 in1016.6 mb 0.00 in0.0 mm 0.00 in/hr0.0 mm/hr 0.00 in0.0 mm
02:20 AM 32.0°F0.0°C 27.7°F-2.4°C 84% Calm Calm -- 30.03 in1016.9 mb 0.00 in0.0 mm 0.00 in/hr0.0 mm/hr 0.00 in0.0 mm
02:10 AM 32.0°F0.0°C 27.4°F-2.6°C 83% Calm Calm -- 30.03 in1016.9 mb 0.00 in0.0 mm 0.00 in/hr0.0 mm/hr 0.00 in0.0 mm
02:00 AM 32.0°F0.0°C 27.4°F-2.6°C 83% 0.1 mph S0.2 kmh S 2.0 mph3.2 kmh 30.03 in1016.9 mb 0.00 in0.0 mm 0.00 in/hr0.0 mm/hr 0.00 in0.0 mm
01:50 AM 32.0°F0.0°C 27.4°F-2.6°C 83% 0.1 mph S0.2 kmh S 1.0 mph1.6 kmh 30.04 in1017.3 mb 0.00 in0.0 mm 0.00 in/hr0.0 mm/hr 0.00 in0.0 mm
01:40 AM 31.9°F-0.1°C 27.3°F-2.6°C 83% Calm Calm -- 30.04 in1017.3 mb 0.00 in0.0 mm 0.00 in/hr0.0 mm/hr 0.00 in0.0 mm
01:30 AM 31.9°F-0.1°C 27.0°F-2.8°C 82% 1.4 mph SE2.3 kmh SE 2.0 mph3.2 kmh 30.04 in1017.3 mb 0.00 in0.0 mm 0.00 in/hr0.0 mm/hr 0.00 in0.0 mm
01:20 AM 31.9°F-0.1°C 27.3°F-2.6°C 83% Calm Calm -- 30.05 in1017.6 mb 0.00 in0.0 mm 0.00 in/hr0.0 mm/hr 0.00 in0.0 mm
01:10 AM 31.9°F-0.1°C 27.0°F-2.8°C 82% Calm Calm -- 30.05 in1017.6 mb 0.00 in0.0 mm 0.00 in/hr0.0 mm/hr 0.00 in0.0 mm
01:00 AM 31.9°F-0.1°C 27.0°F-2.8°C 82% Calm Calm -- 30.05 in1017.6 mb 0.00 in0.0 mm 0.00 in/hr0.0 mm/hr 0.00 in0.0 mm
12:50 AM 31.9°F-0.1°C 27.0°F-2.8°C 82% Calm Calm -- 30.06 in1017.9 mb 0.00 in0.0 mm 0.00 in/hr0.0 mm/hr 0.00 in0.0 mm
12:40 AM 31.8°F-0.1°C 27.0°F-2.8°C 82% Calm Calm -- 30.06 in1017.9 mb 0.00 in0.0 mm 0.00 in/hr0.0 mm/hr 0.00 in0.0 mm
12:30 AM 31.8°F-0.1°C 26.9°F-2.8°C 82% Calm Calm -- 30.06 in1017.9 mb 0.00 in0.0 mm 0.00 in/hr0.0 mm/hr 0.00 in0.0 mm
12:20 AM 31.8°F-0.1°C 27.2°F-2.7°C 83% Calm Calm -- 30.06 in1017.9 mb 0.00 in0.0 mm 0.00 in/hr0.0 mm/hr 0.00 in0.0 mm
12:10 AM 31.7°F-0.2°C 27.1°F-2.7°C 83% Calm Calm -- 30.06 in1017.9 mb 0.00 in0.0 mm 0.00 in/hr0.0 mm/hr 0.00 in0.0 mm
12:00 AM 31.7°F-0.2°C 27.1°F-2.7°C 83% Calm Calm -- 30.06 in1017.9 mb 0.00 in0.0 mm 0.00 in/hr0.0 mm/hr 0.00 in0.0 mm